Lehigh Valley International Airport
KABE : rendu visible

Aérodrome :











RETROUVEZ-NOUS SUR...

 
LOGIN :

S'inscrire | Disclaimer

   EN    FR    IT 

 









Légende :    VFR   VFR Marginal   IFR   IFR Intensif   IFR Très Intensif
Visi : 
Plafond : 
>= 8 km
>= 3000ft
5 à 8 km
1000 à 3000 ft
1500m à 5 km
500 à 1000 ft
800 à 1500m
200 à 500 ft
< 800m
< 200 ft
Symboles :   Orages  Brouillard  Fortes neiges  Fortes précipitations  Vent > 20 kt






- Altitude de l'aérodrome : 393 ft
- Code IATA : ABE


KABE - Lehigh Valley International

DERNIER METAR :
  • 250351Z 08007KT 10SM CLR 04/M05 A3019 RMK AO2 SLP227 T00441050

METARs EXPIRÉS :
  • 250251Z 07006KT 10SM SCT049 BKN075 06/M06 A3023 RMK AO2 SLP239 T00561056 58010
  • 250151Z 05006KT 10SM FEW055 04/M07 A3024 RMK AO2 SLP244 T00441072

TAF KABE
Valide du 25 à 00h jusqu'au 26 à 00h UTC


242343Z 2500/2524 08009KT P6SM BKN045
FM250700 07010KT P6SM OVC025
FM250900 07012KT 5SM -RA OVC008 WS020/10045KT
FM251100 08014KT 2SM RA OVC008 WS020/11045KT
FM251400 08014KT 2SM +RA OVC003 WS020/11045KT
FM251700 09013G21KT 1SM +RA OVC008
FM252100 07005KT 3SM -RA OVC012



MET'MAP, la Météo Aéronautique d'un coup d'oeil ! - Copyright ORBIFLY Décembre 2007 - Disclaimer

ORBIFLY MET'MAP TEAM :

Programmation & Développement : Alexandra Zaïnal
Sur une idée originale de : Baudouin d'Aumeries
Assistance à la programmation : Marc-Olivier Méhu
Soutien technique & logistique : Manuel Goepfert

Contact : metmap@orbifly.com




SOURCES & CREDITS :

   NOAA       Earth
Advisory